Dalton City, Illinois
Current Conditions -  °F | °C
As of 10:54 PM on Saturday 22 Nov 2014 (Local Time) from KDEC Reporting Station
Light Rain Light Rain  
Wind Chill: 51°   Ceiling: 4900
Heat Index: 51°   Visibility: 7mi
Dew Point: 48°   Wind: 13mph
Humidity: 89%   Direction: 170°S
Pressure: 29.9"   Gusts: NA
Location:  39.71°N, 88.8°W
Report Text: KDEC 230454Z 17011KT 7SM -RA SCT026 BKN049 OVC090 11/09 A2990 RMK AO2 SLP124 P0008 T01060089
Loading
Personal Weather Stations






























Interactive Weather Map New forecast layout! Learn more

10-Day Weather Forecast

Advertisements
Track Severe Weather on mobile